createdAt,value
2023-04-17T00:01:32.507Z,98730.59
2023-04-17T00:03:59.379Z,98722.97
2023-04-17T00:06:27.349Z,98720.34
2023-04-17T00:08:54.260Z,98721.44
2023-04-17T00:11:21.566Z,98720.34
2023-04-17T00:13:48.290Z,98729.78
2023-04-17T00:16:15.052Z,98728.00
2023-04-17T00:18:41.810Z,98723.09
2023-04-17T00:21:08.508Z,98723.97
2023-04-17T00:23:35.254Z,98721.16
2023-04-17T00:26:01.906Z,98715.19
2023-04-17T00:28:28.586Z,98713.22
2023-04-17T00:30:55.368Z,98718.69
2023-04-17T00:33:22.055Z,98716.69
2023-04-17T00:35:49.159Z,98707.13
2023-04-17T00:38:15.972Z,98708.09
2023-04-17T00:40:43.017Z,98711.16
2023-04-17T00:43:09.747Z,98705.06
2023-04-17T00:45:36.583Z,98698.50
2023-04-17T00:48:05.013Z,98695.84
2023-04-17T00:50:31.886Z,98698.50
2023-04-17T00:52:59.823Z,98700.72
2023-04-17T00:55:27.856Z,98692.13
2023-04-17T00:57:55.766Z,98693.09
2023-04-17T01:00:22.591Z,98695.72
2023-04-17T01:02:49.437Z,98693.09
2023-04-17T01:05:16.195Z,98691.28
2023-04-17T01:07:43.201Z,98693.09
2023-04-17T01:10:10.198Z,98689.63
2023-04-17T01:12:37.020Z,98692.25
2023-04-17T01:15:04.309Z,98686.16
2023-04-17T01:17:31.411Z,98693.38
2023-04-17T01:19:58.518Z,98688.09
2023-04-17T01:22:25.549Z,98684.47
2023-04-17T01:24:56.609Z,98680.31
2023-04-17T01:27:25.797Z,98683.81
2023-04-17T01:29:52.518Z,98684.91
2023-04-17T01:32:20.049Z,98689.34
2023-04-17T01:34:47.023Z,98694.78
2023-04-17T01:37:13.704Z,98681.41
2023-04-17T01:39:40.948Z,98685.75
2023-04-17T01:42:07.746Z,98690.34
2023-04-17T01:44:34.803Z,98684.50
2023-04-17T01:47:01.477Z,98688.81
2023-04-17T01:49:28.816Z,98690.09
2023-04-17T01:51:55.625Z,98693.69
2023-04-17T01:54:22.642Z,98689.38
2023-04-17T01:56:49.418Z,98684.81
2023-04-17T01:59:16.275Z,98683.41
2023-04-17T02:01:43.177Z,98685.50
2023-04-17T02:04:09.956Z,98687.16
2023-04-17T02:06:36.752Z,98691.75
2023-04-17T02:09:04.179Z,98683.13
2023-04-17T02:11:31.583Z,98686.75
2023-04-17T02:13:58.317Z,98687.56
2023-04-17T02:16:25.065Z,98687.72
2023-04-17T02:18:52.517Z,98689.78
2023-04-17T02:21:19.787Z,98682.69
2023-04-17T02:23:46.521Z,98682.69
2023-04-17T02:26:13.321Z,98684.69
2023-04-17T02:28:40.088Z,98685.78
2023-04-17T02:31:08.771Z,98687.84
2023-04-17T02:33:38.969Z,98691.31
2023-04-17T02:36:06.558Z,98692.59
2023-04-17T02:38:38.437Z,98699.41
2023-04-17T02:41:06.442Z,98686.03
2023-04-17T02:43:33.904Z,98691.19
2023-04-17T02:46:01.588Z,98686.75
2023-04-17T02:48:28.378Z,98690.91
2023-04-17T02:50:55.434Z,98685.22
2023-04-17T02:53:22.410Z,98686.03
2023-04-17T02:55:49.888Z,98680.63
2023-04-17T02:58:19.312Z,98689.25
2023-04-17T03:00:46.263Z,98693.69
2023-04-17T03:03:16.497Z,98687.72
2023-04-17T03:05:43.468Z,98689.25
2023-04-17T03:08:10.776Z,98687.44
2023-04-17T03:10:44.347Z,98683.13
2023-04-17T03:13:11.331Z,98688.97
2023-04-17T03:15:38.022Z,98690.63
2023-04-17T03:18:05.056Z,98686.03
2023-04-17T03:20:32.169Z,98689.50
2023-04-17T03:22:59.014Z,98687.16
2023-04-17T03:25:25.986Z,98688.81
2023-04-17T03:27:53.159Z,98684.50
2023-04-17T03:30:23.419Z,98687.16
2023-04-17T03:32:51.989Z,98688.28
2023-04-17T03:35:18.830Z,98693.56
2023-04-17T03:37:45.662Z,98694.53
2023-04-17T03:40:13.394Z,98693.56
2023-04-17T03:42:40.278Z,98692.03
2023-04-17T03:45:07.688Z,98695.66
2023-04-17T03:47:34.427Z,98696.75
2023-04-17T03:50:01.281Z,98697.72
2023-04-17T03:52:33.056Z,98699.69
2023-04-17T03:55:00.014Z,98696.91
2023-04-17T03:57:27.424Z,98694.13
2023-04-17T03:59:54.313Z,98693.13
2023-04-17T04:02:21.327Z,98704.53
2023-04-17T04:04:50.819Z,98699.94
2023-04-17T04:07:17.681Z,98699.25
2023-04-17T04:09:45.002Z,98701.19
2023-04-17T04:12:11.813Z,98701.22
2023-04-17T04:14:42.123Z,98702.34
2023-04-17T04:17:09.898Z,98702.88
2023-04-17T04:19:37.961Z,98700.81
2023-04-17T04:22:06.650Z,98702.03
2023-04-17T04:24:40.727Z,98704.69
2023-04-17T04:27:07.741Z,98708.31
2023-04-17T04:29:37.818Z,98709.69
2023-04-17T04:32:09.798Z,98712.31
2023-04-17T04:34:42.226Z,98711.50
2023-04-17T04:37:08.963Z,98708.72
2023-04-17T04:39:39.367Z,98712.31
2023-04-17T04:42:10.112Z,98717.06
2023-04-17T04:44:58.921Z,98713.16
2023-04-17T04:47:28.857Z,98708.72
2023-04-17T04:49:56.025Z,98713.72
2023-04-17T04:52:23.277Z,98720.53
2023-04-17T04:54:53.700Z,98717.59
2023-04-17T04:57:20.465Z,98719.81
2023-04-17T04:59:49.255Z,98721.34
2023-04-17T05:02:30.306Z,98725.09
2023-04-17T05:04:57.660Z,98727.59
2023-04-17T05:07:24.843Z,98726.09
2023-04-17T05:09:51.971Z,98732.06
2023-04-17T05:12:18.853Z,98731.75
2023-04-17T05:14:45.686Z,98737.19
2023-04-17T05:17:13.384Z,98736.50
2023-04-17T05:19:40.065Z,98734.97
2023-04-17T05:22:09.258Z,98729.00
2023-04-17T05:24:45.199Z,98733.31
2023-04-17T05:27:11.920Z,98736.50
2023-04-17T05:29:38.783Z,98739.13
2023-04-17T05:32:05.977Z,98739.84
2023-04-17T05:34:58.805Z,98737.03
2023-04-17T05:37:27.653Z,98743.44
2023-04-17T05:39:55.875Z,98740.97
2023-04-17T05:42:22.566Z,98741.50
2023-04-17T05:44:49.373Z,98743.03
2023-04-17T05:47:16.200Z,98742.31
2023-04-17T05:49:44.157Z,98744.00
2023-04-17T05:52:11.048Z,98747.91
2023-04-17T05:54:42.414Z,98742.34
2023-04-17T05:57:09.129Z,98745.81
2023-04-17T05:59:36.639Z,98747.63
2023-04-17T06:02:04.442Z,98747.03
2023-04-17T06:04:33.683Z,98748.19
2023-04-17T06:07:03.006Z,98747.63
2023-04-17T06:09:30.642Z,98743.56
2023-04-17T06:11:57.454Z,98745.69
2023-04-17T06:14:24.283Z,98747.03
2023-04-17T06:16:51.291Z,98745.47
2023-04-17T06:19:18.067Z,98751.84
2023-04-17T06:21:45.451Z,98755.84
2023-04-17T06:24:12.217Z,98760.84
2023-04-17T06:26:44.886Z,98764.72
2023-04-17T06:29:12.873Z,98761.38
2023-04-17T06:31:40.575Z,98759.97
2023-04-17T06:34:07.759Z,98752.91
2023-04-17T06:36:39.398Z,98759.56
2023-04-17T06:39:07.006Z,98759.84
2023-04-17T06:41:33.963Z,98763.59
2023-04-17T06:44:01.149Z,98762.06
2023-04-17T06:46:43.384Z,98765.00
2023-04-17T06:49:10.301Z,98772.94
2023-04-17T06:51:37.277Z,98766.50
2023-04-17T06:54:04.046Z,98771.25
2023-04-17T06:56:31.031Z,98781.66
2023-04-17T06:58:58.038Z,98775.69
2023-04-17T07:01:24.744Z,98769.56
2023-04-17T07:03:51.628Z,98775.69
2023-04-17T07:06:19.641Z,98776.94
2023-04-17T07:08:46.344Z,98780.94
2023-04-17T07:11:13.009Z,98779.00
2023-04-17T07:13:39.824Z,98783.16
2023-04-17T07:16:06.952Z,98782.75
2023-04-17T07:18:33.768Z,98786.63
2023-04-17T07:21:00.992Z,98793.75
2023-04-17T07:23:27.696Z,98788.56
2023-04-17T07:25:54.745Z,98786.34
2023-04-17T07:28:21.683Z,98785.63
2023-04-17T07:30:48.451Z,98792.03
2023-04-17T07:33:15.198Z,98789.66
2023-04-17T07:35:43.192Z,98790.66
2023-04-17T07:38:10.051Z,98793.13
2023-04-17T07:40:36.934Z,98796.63
2023-04-17T07:43:03.889Z,98795.34
2023-04-17T07:45:31.152Z,98795.63
2023-04-17T07:47:57.929Z,98792.56
2023-04-17T07:50:25.057Z,98799.22
2023-04-17T07:52:51.829Z,98799.22
2023-04-17T07:55:18.539Z,98796.19
2023-04-17T07:57:46.695Z,98801.97
2023-04-17T08:00:14.910Z,98805.72
2023-04-17T08:02:42.873Z,98805.88
2023-04-17T08:05:10.252Z,98803.50
2023-04-17T08:07:37.633Z,98800.31
2023-04-17T08:10:05.369Z,98800.84
2023-04-17T08:12:32.318Z,98811.84
2023-04-17T08:14:59.058Z,98807.25
2023-04-17T08:17:26.496Z,98807.53
2023-04-17T08:19:59.143Z,98817.41
2023-04-17T08:22:26.233Z,98811.72
2023-04-17T08:24:58.064Z,98812.84
2023-04-17T08:27:25.994Z,98818.00
2023-04-17T08:29:53.810Z,98820.34
2023-04-17T08:32:21.584Z,98819.78
2023-04-17T08:34:48.370Z,98817.81
2023-04-17T08:37:15.068Z,98819.63
2023-04-17T08:39:41.747Z,98815.78
2023-04-17T08:42:13.323Z,98820.34
2023-04-17T08:44:43.496Z,98821.66
2023-04-17T08:47:10.349Z,98825.47
2023-04-17T08:49:37.517Z,98823.75
2023-04-17T08:52:05.426Z,98818.09
2023-04-17T08:54:35.273Z,98823.16
2023-04-17T08:57:06.008Z,98824.38
2023-04-17T08:59:33.369Z,98818.88
2023-04-17T09:02:07.925Z,98827.78
2023-04-17T09:04:43.085Z,98828.22
2023-04-17T09:07:11.845Z,98826.34
2023-04-17T09:09:48.291Z,98829.16
2023-04-17T09:12:15.062Z,98827.19
2023-04-17T09:14:41.785Z,98830.59
2023-04-17T09:17:08.564Z,98826.75
2023-04-17T09:19:35.382Z,98823.28
2023-04-17T09:22:18.700Z,98820.00
2023-04-17T09:24:45.653Z,98828.41
2023-04-17T09:27:26.901Z,98826.06
2023-04-17T09:30:04.993Z,98830.59
2023-04-17T09:32:33.411Z,98834.31
2023-04-17T09:35:02.674Z,98828.66
2023-04-17T09:37:51.533Z,98839.25
2023-04-17T09:40:19.264Z,98834.31
2023-04-17T09:43:04.054Z,98831.44
2023-04-17T09:45:37.138Z,98831.75
2023-04-17T09:48:07.143Z,98833.44
2023-04-17T09:50:35.859Z,98838.34
2023-04-17T09:53:05.259Z,98843.66
2023-04-17T09:55:32.799Z,98832.34
2023-04-17T09:58:02.212Z,98839.78
2023-04-17T10:00:29.678Z,98839.09
2023-04-17T10:02:58.379Z,98838.66
2023-04-17T10:05:29.944Z,98836.34
2023-04-17T10:07:57.062Z,98829.47
2023-04-17T10:10:31.240Z,98833.25
2023-04-17T10:13:00.607Z,98829.19
2023-04-17T10:15:27.752Z,98832.22
2023-04-17T10:17:56.674Z,98826.25
2023-04-17T10:20:23.777Z,98819.72
2023-04-17T10:22:55.192Z,98819.81
2023-04-17T10:25:26.436Z,98816.34
2023-04-17T10:27:59.946Z,98814.75
2023-04-17T10:30:49.414Z,98813.94
2023-04-17T10:33:16.918Z,98803.13
2023-04-17T10:35:43.617Z,98817.94
2023-04-17T10:38:11.636Z,98806.66
2023-04-17T10:40:39.221Z,98805.16
2023-04-17T10:43:19.990Z,98805.16
2023-04-17T10:46:14.734Z,98801.16
2023-04-17T10:48:51.139Z,98805.16
2023-04-17T10:51:24.055Z,98800.84
2023-04-17T10:53:54.347Z,98797.88
2023-04-17T10:56:46.579Z,98788.38
2023-04-17T10:59:16.469Z,98796.88
2023-04-17T11:01:50.162Z,98789.00
2023-04-17T11:04:24.660Z,98785.69
2023-04-17T11:06:52.891Z,98783.31
2023-04-17T11:09:24.403Z,98762.91
2023-04-17T11:11:51.364Z,98780.09
2023-04-17T11:14:22.995Z,98785.28
2023-04-17T11:16:51.303Z,98780.53
2023-04-17T11:19:20.093Z,98777.78
2023-04-17T11:21:48.576Z,98776.13
2023-04-17T11:24:23.569Z,98773.50
2023-04-17T11:26:50.333Z,98778.63
2023-04-17T11:29:18.162Z,98778.69
2023-04-17T11:31:45.731Z,98774.91
2023-04-17T11:34:13.596Z,98786.50
2023-04-17T11:36:40.269Z,98776.41
2023-04-17T11:39:08.416Z,98781.38
2023-04-17T11:41:38.979Z,98778.72
2023-04-17T11:44:09.673Z,98773.75
2023-04-17T11:46:36.953Z,98781.22
2023-04-17T11:49:07.407Z,98777.59
2023-04-17T11:51:34.344Z,98774.69
2023-04-17T11:54:01.249Z,98778.88
2023-04-17T11:56:31.181Z,98782.25
2023-04-17T11:58:59.422Z,98782.84
2023-04-17T12:01:27.514Z,98783.72
2023-04-17T12:03:56.155Z,98784.91
2023-04-17T12:06:24.345Z,98780.06
2023-04-17T12:08:53.634Z,98782.56
2023-04-17T12:11:26.378Z,98776.69
2023-04-17T12:13:53.906Z,98774.97
2023-04-17T12:16:20.631Z,98783.00
2023-04-17T12:18:47.839Z,98779.41
2023-04-17T12:21:14.797Z,98785.41
2023-04-17T12:23:41.641Z,98784.38
2023-04-17T12:26:08.799Z,98782.38
2023-04-17T12:28:36.165Z,98773.91
2023-04-17T12:31:04.755Z,98780.38
2023-04-17T12:33:32.385Z,98779.88
2023-04-17T12:36:03.155Z,98769.88
2023-04-17T12:38:32.620Z,98767.88
2023-04-17T12:40:59.329Z,98768.03
2023-04-17T12:43:26.552Z,98765.56
2023-04-17T12:45:53.361Z,98768.59
2023-04-17T12:48:20.067Z,98759.31
2023-04-17T12:50:46.734Z,98765.44
2023-04-17T12:53:14.942Z,98763.09
2023-04-17T12:55:44.012Z,98767.47
2023-04-17T12:58:12.073Z,98763.16
2023-04-17T13:00:40.309Z,98760.31
2023-04-17T13:03:07.436Z,98763.66
2023-04-17T13:05:34.437Z,98755.81
2023-04-17T13:08:01.185Z,98756.53
2023-04-17T13:10:28.158Z,98756.38
2023-04-17T13:12:54.988Z,98756.66
2023-04-17T13:15:21.979Z,98753.38
2023-04-17T13:17:49.104Z,98753.09
2023-04-17T13:20:15.833Z,98755.13
2023-04-17T13:22:42.551Z,98746.81
2023-04-17T13:25:09.987Z,98752.97
2023-04-17T13:27:37.170Z,98745.47
2023-04-17T13:30:04.036Z,98748.66
2023-04-17T13:32:30.750Z,98750.41
2023-04-17T13:34:58.691Z,98742.09
2023-04-17T13:37:26.030Z,98738.78
2023-04-17T13:39:52.763Z,98744.75
2023-04-17T13:42:19.744Z,98741.78
2023-04-17T13:44:46.701Z,98743.59
2023-04-17T13:47:13.711Z,98740.44
2023-04-17T13:49:40.785Z,98743.69
2023-04-17T13:52:07.856Z,98742.19
2023-04-17T13:54:34.603Z,98747.50
2023-04-17T13:57:01.702Z,98737.53
2023-04-17T13:59:28.407Z,98746.69
2023-04-17T14:01:55.216Z,98743.50
2023-04-17T14:04:22.255Z,98736.88
2023-04-17T14:06:51.572Z,98732.56
2023-04-17T14:09:18.358Z,98733.38
2023-04-17T14:11:45.114Z,98735.03
2023-04-17T14:14:13.049Z,98733.19
2023-04-17T14:16:43.702Z,98736.03
2023-04-17T14:19:13.978Z,98734.19
2023-04-17T14:21:41.701Z,98734.03
2023-04-17T14:24:08.716Z,98729.53
2023-04-17T14:26:36.019Z,98735.16
2023-04-17T14:29:02.921Z,98728.53
2023-04-17T14:31:29.778Z,98731.84
2023-04-17T14:33:56.507Z,98728.72
2023-04-17T14:36:23.272Z,98731.38
2023-04-17T14:38:51.939Z,98734.69
2023-04-17T14:41:18.690Z,98730.69
2023-04-17T14:43:45.726Z,98726.34
2023-04-17T14:46:12.477Z,98731.84
2023-04-17T14:48:54.157Z,98730.50
2023-04-17T14:51:27.262Z,98730.81
2023-04-17T14:53:54.588Z,98725.44
2023-04-17T14:56:24.247Z,98722.06
2023-04-17T14:58:52.501Z,98727.22
2023-04-17T15:01:21.648Z,98734.19
2023-04-17T15:03:48.991Z,98722.88
2023-04-17T15:06:16.929Z,98728.00
2023-04-17T15:08:43.802Z,98723.19
2023-04-17T15:11:10.602Z,98727.88
2023-04-17T15:13:37.323Z,98727.34
2023-04-17T15:16:04.373Z,98724.69
2023-04-17T15:18:31.332Z,98729.22
2023-04-17T15:20:58.266Z,98718.75
2023-04-17T15:23:26.637Z,98724.56
2023-04-17T15:25:55.546Z,98717.59
2023-04-17T15:28:22.273Z,98716.59
2023-04-17T15:30:49.216Z,98726.56
2023-04-17T15:33:16.032Z,98727.72
2023-04-17T15:35:42.875Z,98725.56
2023-04-17T15:38:09.645Z,98725.38
2023-04-17T15:40:36.405Z,98725.91
2023-04-17T15:43:03.330Z,98728.66
2023-04-17T15:45:30.010Z,98728.66
2023-04-17T15:47:57.101Z,98730.47
2023-04-17T15:50:24.192Z,98728.47
2023-04-17T15:52:51.038Z,98728.19
2023-04-17T15:55:17.748Z,98734.13
2023-04-17T15:57:44.532Z,98726.47
2023-04-17T16:00:11.926Z,98729.69
2023-04-17T16:02:38.722Z,98726.72
2023-04-17T16:05:05.962Z,98729.34
2023-04-17T16:07:32.883Z,98733.03
2023-04-17T16:10:00.261Z,98732.97
2023-04-17T16:12:28.403Z,98730.31
2023-04-17T16:14:55.657Z,98729.88
2023-04-17T16:17:22.365Z,98729.38
2023-04-17T16:19:50.768Z,98731.03
2023-04-17T16:22:18.656Z,98729.88
2023-04-17T16:24:45.468Z,98731.38
2023-04-17T16:27:12.240Z,98729.69
2023-04-17T16:29:39.055Z,98732.47
2023-04-17T16:32:05.881Z,98735.13
2023-04-17T16:34:32.575Z,98732.44
2023-04-17T16:36:59.250Z,98730.06
2023-04-17T16:39:26.107Z,98731.56
2023-04-17T16:41:52.983Z,98725.06
2023-04-17T16:44:19.922Z,98732.63
2023-04-17T16:47:05.519Z,98729.97
2023-04-17T16:49:33.619Z,98734.25
2023-04-17T16:52:00.454Z,98729.59
2023-04-17T16:54:27.152Z,98736.34
2023-04-17T16:56:53.915Z,98739.53
2023-04-17T16:59:20.649Z,98741.22
2023-04-17T17:01:49.781Z,98745.38
2023-04-17T17:04:16.681Z,98750.00
2023-04-17T17:06:43.804Z,98745.78
2023-04-17T17:09:10.716Z,98749.03
2023-04-17T17:11:37.583Z,98750.25
2023-04-17T17:14:04.325Z,98748.88
2023-04-17T17:16:31.084Z,98751.91
2023-04-17T17:18:57.872Z,98752.91
2023-04-17T17:21:24.596Z,98757.25
2023-04-17T17:23:51.653Z,98752.28
2023-04-17T17:26:18.426Z,98764.38
2023-04-17T17:28:51.113Z,98754.97
2023-04-17T17:31:18.385Z,98754.50
2023-04-17T17:33:50.347Z,98762.97
2023-04-17T17:36:17.391Z,98763.50
2023-04-17T17:38:44.684Z,98761.00
2023-04-17T17:41:11.406Z,98761.81
2023-04-17T17:43:38.211Z,98766.69
2023-04-17T17:46:05.287Z,98773.56
2023-04-17T17:48:32.080Z,98767.38
2023-04-17T17:50:58.828Z,98768.13
2023-04-17T17:53:26.926Z,98772.84
2023-04-17T17:55:55.108Z,98778.59
2023-04-17T17:58:22.838Z,98771.47
2023-04-17T18:00:52.545Z,98769.34
2023-04-17T18:03:19.658Z,98771.41
2023-04-17T18:05:47.471Z,98770.78
2023-04-17T18:08:14.722Z,98772.63
2023-04-17T18:10:41.625Z,98777.41
2023-04-17T18:13:08.648Z,98774.38
2023-04-17T18:15:36.240Z,98784.13
2023-04-17T18:18:03.233Z,98781.94
2023-04-17T18:20:30.072Z,98772.31
2023-04-17T18:22:58.254Z,98779.78
2023-04-17T18:25:25.064Z,98784.63
2023-04-17T18:27:51.915Z,98791.00
2023-04-17T18:30:18.885Z,98793.56
2023-04-17T18:32:45.627Z,98783.06
2023-04-17T18:35:12.431Z,98780.41
2023-04-17T18:37:39.844Z,98787.19
2023-04-17T18:40:08.029Z,98785.06
2023-04-17T18:42:34.811Z,98789.88
2023-04-17T18:45:01.544Z,98797.84
2023-04-17T18:47:28.538Z,98792.00
2023-04-17T18:49:55.239Z,98800.69
2023-04-17T18:52:21.941Z,98805.16
2023-04-17T18:54:48.696Z,98809.91
2023-04-17T18:57:15.411Z,98808.03
2023-04-17T18:59:43.282Z,98817.38
2023-04-17T19:02:10.584Z,98816.38
2023-04-17T19:04:37.306Z,98810.50
2023-04-17T19:07:04.058Z,98811.03
2023-04-17T19:09:30.874Z,98806.72
2023-04-17T19:11:58.702Z,98815.84
2023-04-17T19:14:25.701Z,98808.00
2023-04-17T19:16:53.479Z,98807.44
2023-04-17T19:19:20.324Z,98819.16
2023-04-17T19:21:47.023Z,98808.31
2023-04-17T19:24:13.724Z,98817.09
2023-04-17T19:26:40.483Z,98815.28
2023-04-17T19:29:07.458Z,98816.31
2023-04-17T19:31:34.272Z,98809.09
2023-04-17T19:34:01.427Z,98811.91
2023-04-17T19:36:28.584Z,98812.03
2023-04-17T19:38:59.152Z,98809.53
2023-04-17T19:41:26.458Z,98822.38
2023-04-17T19:43:54.331Z,98820.69
2023-04-17T19:46:22.293Z,98821.09
2023-04-17T19:48:49.789Z,98820.97
2023-04-17T19:51:16.893Z,98814.84
2023-04-17T19:53:44.345Z,98824.88
2023-04-17T19:56:12.559Z,98828.22
2023-04-17T19:58:40.626Z,98819.28
2023-04-17T20:01:07.419Z,98823.75
2023-04-17T20:03:35.688Z,98817.78
2023-04-17T20:06:03.639Z,98817.53
2023-04-17T20:08:30.460Z,98808.88
2023-04-17T20:10:57.168Z,98805.25
2023-04-17T20:13:23.855Z,98806.53
2023-04-17T20:15:50.990Z,98808.03
2023-04-17T20:18:17.870Z,98801.78
2023-04-17T20:20:44.682Z,98801.25
2023-04-17T20:23:11.656Z,98808.19
2023-04-17T20:25:38.379Z,98802.09
2023-04-17T20:28:05.519Z,98807.25
2023-04-17T20:30:32.287Z,98804.72
2023-04-17T20:32:59.192Z,98812.25
2023-04-17T20:35:26.085Z,98809.72
2023-04-17T20:37:53.091Z,98815.72
2023-04-17T20:40:19.978Z,98810.44
2023-04-17T20:42:46.969Z,98807.38
2023-04-17T20:45:13.917Z,98812.06
2023-04-17T20:47:55.892Z,98806.09
2023-04-17T20:50:23.048Z,98811.53
2023-04-17T20:52:49.815Z,98810.41
2023-04-17T20:55:18.945Z,98804.13
2023-04-17T20:57:45.811Z,98805.13
2023-04-17T21:00:12.922Z,98796.78
2023-04-17T21:02:39.737Z,98800.97
2023-04-17T21:05:07.603Z,98795.81
2023-04-17T21:07:34.600Z,98800.97
2023-04-17T21:10:01.787Z,98797.03
2023-04-17T21:12:28.632Z,98792.56
2023-04-17T21:14:56.182Z,98791.75
2023-04-17T21:17:22.972Z,98786.47
2023-04-17T21:19:49.842Z,98793.44
2023-04-17T21:22:16.671Z,98791.63
2023-04-17T21:24:43.418Z,98795.38
2023-04-17T21:27:10.681Z,98797.72
2023-04-17T21:29:37.710Z,98795.91
2023-04-17T21:32:04.677Z,98789.81
2023-04-17T21:34:31.540Z,98783.00
2023-04-17T21:36:59.805Z,98783.69
2023-04-17T21:39:26.774Z,98788.81
2023-04-17T21:41:53.592Z,98781.75
2023-04-17T21:44:20.334Z,98787.97
2023-04-17T21:46:47.130Z,98788.69
2023-04-17T21:49:13.817Z,98786.03
2023-04-17T21:51:41.018Z,98787.44
2023-04-17T21:54:09.270Z,98778.41
2023-04-17T21:56:36.549Z,98786.16
2023-04-17T21:59:03.834Z,98780.75
2023-04-17T22:01:30.652Z,98778.41
2023-04-17T22:03:57.501Z,98777.56
2023-04-17T22:06:24.387Z,98776.88
2023-04-17T22:08:51.086Z,98772.41
2023-04-17T22:11:17.862Z,98774.75
2023-04-17T22:13:45.233Z,98775.59
2023-04-17T22:16:12.073Z,98773.09
2023-04-17T22:18:38.841Z,98762.53
2023-04-17T22:21:06.294Z,98764.19
2023-04-17T22:23:33.054Z,98767.81
2023-04-17T22:25:59.738Z,98762.38
2023-04-17T22:28:30.050Z,98760.84
2023-04-17T22:30:57.914Z,98766.88
2023-04-17T22:33:24.775Z,98757.25
2023-04-17T22:35:51.461Z,98758.09
2023-04-17T22:38:19.507Z,98756.03
2023-04-17T22:40:46.250Z,98763.97
2023-04-17T22:43:12.963Z,98759.22
2023-04-17T22:45:39.620Z,98767.13
2023-04-17T22:48:06.817Z,98760.91
2023-04-17T22:50:33.497Z,98760.91
2023-04-17T22:53:00.202Z,98761.72
2023-04-17T22:55:26.891Z,98757.97
2023-04-17T22:57:53.645Z,98755.59
2023-04-17T23:00:21.278Z,98759.91
2023-04-17T23:02:48.108Z,98760.91
2023-04-17T23:05:15.053Z,98760.72
2023-04-17T23:07:41.757Z,98758.94
2023-04-17T23:10:09.055Z,98759.91
2023-04-17T23:12:35.738Z,98757.69
2023-04-17T23:15:02.470Z,98764.78
2023-04-17T23:17:29.461Z,98756.84
2023-04-17T23:19:57.054Z,98753.38
2023-04-17T23:22:23.896Z,98750.75
2023-04-17T23:24:50.616Z,98747.69
2023-04-17T23:27:17.455Z,98749.22
2023-04-17T23:29:44.760Z,98750.88
2023-04-17T23:32:11.458Z,98747.41
2023-04-17T23:34:38.238Z,98747.56
2023-04-17T23:37:05.517Z,98752.69
2023-04-17T23:39:32.217Z,98743.09
2023-04-17T23:42:00.614Z,98745.34
2023-04-17T23:44:27.349Z,98753.28
2023-04-17T23:46:54.074Z,98739.06
2023-04-17T23:49:21.180Z,98745.19
2023-04-17T23:51:47.936Z,98745.06
2023-04-17T23:54:15.395Z,98747.00
2023-04-17T23:56:43.650Z,98750.63
2023-04-17T23:59:10.477Z,98738.53
